createdAt,value
2018-11-11T05:01:01.640Z,12.92
2018-11-11T05:02:01.515Z,12.91
2018-11-11T05:03:54.199Z,12.83
2018-11-11T05:04:54.083Z,12.94
2018-11-11T05:06:46.767Z,13.01
2018-11-11T05:07:46.633Z,13.06
2018-11-11T05:09:39.301Z,13.03
2018-11-11T05:10:39.195Z,13.09
2018-11-11T05:12:32.375Z,13.14
2018-11-11T05:13:32.247Z,13.13
2018-11-11T05:15:24.919Z,13.14
2018-11-11T05:16:24.804Z,13.19
2018-11-11T05:18:17.494Z,13.20
2018-11-11T05:19:17.374Z,13.13
2018-11-11T05:21:10.053Z,13.19
2018-11-11T05:22:09.949Z,13.16
2018-11-11T05:24:02.630Z,13.20
2018-11-11T05:25:02.516Z,13.21
2018-11-11T05:26:55.175Z,13.21
2018-11-11T05:27:55.069Z,13.25
2018-11-11T05:29:47.752Z,13.21
2018-11-11T05:30:47.650Z,13.25
2018-11-11T05:32:40.301Z,13.29
2018-11-11T05:33:40.183Z,13.24
2018-11-11T05:35:32.876Z,13.27
2018-11-11T05:36:32.749Z,13.21
2018-11-11T05:38:25.422Z,13.27
2018-11-11T05:39:25.316Z,13.27
2018-11-11T05:41:17.999Z,13.29
2018-11-11T05:42:17.878Z,13.36
2018-11-11T05:44:10.545Z,13.37
2018-11-11T05:45:10.443Z,13.40
2018-11-11T05:47:03.127Z,13.39
2018-11-11T05:48:02.999Z,13.39
2018-11-11T05:49:55.676Z,13.28
2018-11-11T05:50:55.572Z,13.31
2018-11-11T05:52:48.262Z,13.31
2018-11-11T05:53:48.137Z,13.44
2018-11-11T05:55:40.819Z,13.36
2018-11-11T05:56:40.708Z,13.28
2018-11-11T05:58:33.552Z,13.31
2018-11-11T05:59:33.276Z,13.36
2018-11-11T06:01:25.947Z,13.32
2018-11-11T06:02:25.832Z,13.40
2018-11-11T06:04:18.523Z,13.31
2018-11-11T06:05:18.394Z,13.44
2018-11-11T06:07:11.088Z,13.35
2018-11-11T06:08:10.959Z,13.24
2018-11-11T06:10:03.631Z,13.29
2018-11-11T06:11:03.527Z,13.24
2018-11-11T06:12:56.209Z,13.24
2018-11-11T06:13:56.079Z,13.21
2018-11-11T06:15:48.753Z,13.14
2018-11-11T06:16:48.646Z,13.10
2018-11-11T06:18:41.332Z,13.09
2018-11-11T06:19:41.201Z,13.17
2018-11-11T06:21:33.901Z,13.02
2018-11-11T06:22:33.788Z,13.03
2018-11-11T06:24:26.481Z,13.09
2018-11-11T06:25:26.367Z,13.06
2018-11-11T06:27:19.056Z,13.13
2018-11-11T06:28:18.917Z,13.09
2018-11-11T06:30:11.597Z,13.16
2018-11-11T06:31:11.472Z,13.16
2018-11-11T06:33:04.144Z,13.19
2018-11-11T06:34:04.102Z,13.19
2018-11-11T06:35:56.724Z,13.17
2018-11-11T06:36:56.610Z,13.17
2018-11-11T06:38:49.271Z,13.14
2018-11-11T06:39:49.164Z,13.17
2018-11-11T06:41:41.854Z,13.17
2018-11-11T06:42:41.725Z,13.21
2018-11-11T06:44:34.391Z,13.20
2018-11-11T06:45:34.285Z,13.21
2018-11-11T06:47:26.970Z,13.19
2018-11-11T06:48:26.846Z,13.19
2018-11-11T06:50:19.516Z,13.21
2018-11-11T06:51:19.409Z,13.16
2018-11-11T06:53:12.104Z,13.14
2018-11-11T06:54:11.968Z,13.20
2018-11-11T06:56:04.644Z,13.21
2018-11-11T06:57:04.536Z,13.21
2018-11-11T06:58:57.219Z,13.24
2018-11-11T06:59:57.100Z,13.20
2018-11-11T07:01:49.793Z,13.19
2018-11-11T07:02:49.663Z,13.24
2018-11-11T07:04:42.330Z,13.24
2018-11-11T07:05:42.220Z,13.32
2018-11-11T07:07:34.976Z,13.35
2018-11-11T07:08:34.789Z,13.40
2018-11-11T07:10:27.465Z,13.42
2018-11-11T07:11:27.350Z,13.44
2018-11-11T07:13:20.044Z,13.37
2018-11-11T07:14:19.912Z,13.44
2018-11-11T07:16:13.076Z,13.42
2018-11-11T07:17:12.969Z,13.39
2018-11-11T07:19:05.655Z,13.45
2018-11-11T07:20:05.528Z,13.42
2018-11-11T07:21:58.204Z,13.44
2018-11-11T07:22:58.137Z,13.55
2018-11-11T07:24:50.786Z,13.39
2018-11-11T07:25:50.660Z,13.44
2018-11-11T07:27:43.327Z,13.44
2018-11-11T07:28:43.218Z,13.40
2018-11-11T07:30:35.913Z,13.37
2018-11-11T07:31:35.789Z,13.51
2018-11-11T07:33:28.452Z,13.42
2018-11-11T07:34:28.347Z,13.42
2018-11-11T07:36:21.059Z,13.39
2018-11-11T07:37:20.932Z,13.40
2018-11-11T07:39:13.605Z,13.48
2018-11-11T07:40:13.495Z,13.40
2018-11-11T07:42:06.184Z,13.48
2018-11-11T07:43:06.059Z,13.42
2018-11-11T07:44:58.728Z,13.39
2018-11-11T07:45:58.625Z,13.39
2018-11-11T07:47:51.351Z,13.53
2018-11-11T07:48:51.192Z,13.53
2018-11-11T07:50:43.875Z,13.51
2018-11-11T07:51:43.792Z,13.57
2018-11-11T07:53:36.458Z,13.60
2018-11-11T07:54:36.331Z,13.65
2018-11-11T07:56:29.002Z,13.60
2018-11-11T07:57:28.902Z,13.51
2018-11-11T07:59:21.586Z,13.50
2018-11-11T08:00:21.458Z,13.48
2018-11-11T08:02:14.246Z,13.62
2018-11-11T08:03:14.024Z,13.63
2018-11-11T08:05:06.718Z,13.84
2018-11-11T08:06:06.594Z,13.84
2018-11-11T08:07:59.293Z,13.87
2018-11-11T08:08:59.162Z,13.99
2018-11-11T08:10:51.882Z,14.02
2018-11-11T08:11:51.729Z,14.05
2018-11-11T08:13:44.425Z,14.19
2018-11-11T08:14:44.289Z,14.03
2018-11-11T08:16:37.018Z,13.99
2018-11-11T08:17:36.853Z,14.02
2018-11-11T08:19:29.574Z,14.01
2018-11-11T08:20:29.439Z,14.01
2018-11-11T08:22:22.105Z,14.02
2018-11-11T08:23:22.003Z,13.95
2018-11-11T08:25:14.710Z,13.97
2018-11-11T08:26:14.567Z,14.11
2018-11-11T08:28:07.240Z,14.19
2018-11-11T08:29:07.132Z,14.21
2018-11-11T08:30:59.816Z,14.21
2018-11-11T08:31:59.692Z,14.34
2018-11-11T08:33:52.370Z,14.31
2018-11-11T08:34:52.264Z,14.34
2018-11-11T08:36:44.960Z,14.41
2018-11-11T08:37:44.835Z,14.44
2018-11-11T08:39:38.012Z,14.42
2018-11-11T08:40:37.987Z,14.46
2018-11-11T08:42:30.593Z,14.46
2018-11-11T08:43:30.470Z,14.52
2018-11-11T08:45:23.153Z,14.56
2018-11-11T08:46:23.035Z,14.60
2018-11-11T08:48:15.801Z,14.56
2018-11-11T08:49:15.610Z,14.63
2018-11-11T08:51:08.282Z,14.67
2018-11-11T08:52:08.179Z,14.80
2018-11-11T08:54:00.858Z,14.75
2018-11-11T08:55:00.739Z,14.75
2018-11-11T08:56:53.418Z,14.70
2018-11-11T08:57:53.323Z,14.75
2018-11-11T08:59:46.014Z,14.71
2018-11-11T09:00:45.872Z,14.70
2018-11-11T09:02:38.559Z,14.75
2018-11-11T09:03:38.441Z,14.80
2018-11-11T09:05:31.141Z,14.86
2018-11-11T09:06:31.012Z,14.82
2018-11-11T09:08:23.693Z,14.93
2018-11-11T09:09:23.586Z,14.89
2018-11-11T09:11:16.315Z,15.01
2018-11-11T09:12:16.161Z,15.12
2018-11-11T09:14:08.824Z,15.08
2018-11-11T09:15:08.716Z,15.26
2018-11-11T09:17:01.402Z,15.30
2018-11-11T09:18:01.284Z,15.43
2018-11-11T09:19:53.972Z,15.49
2018-11-11T09:20:53.852Z,15.43
2018-11-11T09:22:46.524Z,15.45
2018-11-11T09:23:46.550Z,15.44
2018-11-11T09:25:39.108Z,15.25
2018-11-11T09:26:38.985Z,15.23
2018-11-11T09:28:31.662Z,15.18
2018-11-11T09:29:31.633Z,15.19
2018-11-11T09:31:24.305Z,15.23
2018-11-11T09:32:24.135Z,15.20
2018-11-11T09:34:16.805Z,15.19
2018-11-11T09:35:16.733Z,15.26
2018-11-11T09:37:09.387Z,15.26
2018-11-11T09:38:09.259Z,15.25
2018-11-11T09:40:01.947Z,15.23
2018-11-11T09:41:01.904Z,15.26
2018-11-11T09:42:54.521Z,15.04
2018-11-11T09:43:54.403Z,15.02
2018-11-11T09:45:47.077Z,15.02
2018-11-11T09:46:46.973Z,15.19
2018-11-11T09:48:39.670Z,15.20
2018-11-11T09:49:39.542Z,15.19
2018-11-11T09:51:32.233Z,15.07
2018-11-11T09:52:32.170Z,15.13
2018-11-11T09:54:24.834Z,15.05
2018-11-11T09:55:24.694Z,15.04
2018-11-11T09:57:17.367Z,15.07
2018-11-11T09:58:17.266Z,15.15
2018-11-11T10:00:09.956Z,15.15
2018-11-11T10:01:09.832Z,15.15
2018-11-11T10:03:02.504Z,15.08
2018-11-11T10:04:02.399Z,15.05
2018-11-11T10:05:55.089Z,15.13
2018-11-11T10:06:54.980Z,15.20
2018-11-11T10:08:47.686Z,15.37
2018-11-11T10:09:47.561Z,15.47
2018-11-11T10:11:40.739Z,15.65
2018-11-11T10:12:40.682Z,15.63
2018-11-11T10:14:33.334Z,15.55
2018-11-11T10:15:33.208Z,15.51
2018-11-11T10:17:25.883Z,15.33
2018-11-11T10:18:25.775Z,15.43
2018-11-11T10:20:18.549Z,15.27
2018-11-11T10:21:18.346Z,15.30
2018-11-11T10:23:11.018Z,15.43
2018-11-11T10:24:10.916Z,15.68
2018-11-11T10:26:03.615Z,15.88
2018-11-11T10:27:03.497Z,15.98
2018-11-11T10:28:56.170Z,15.99
2018-11-11T10:29:56.067Z,15.89
2018-11-11T10:31:48.752Z,15.78
2018-11-11T10:32:48.633Z,15.78
2018-11-11T10:34:41.307Z,15.81
2018-11-11T10:35:41.217Z,15.70
2018-11-11T10:37:33.986Z,15.68
2018-11-11T10:38:33.771Z,15.59
2018-11-11T10:40:26.494Z,15.80
2018-11-11T10:41:26.351Z,15.86
2018-11-11T10:43:19.044Z,16.10
2018-11-11T10:44:18.970Z,16.11
2018-11-11T10:46:11.761Z,16.17
2018-11-11T10:47:11.636Z,16.11
2018-11-11T10:49:04.193Z,16.10
2018-11-11T10:50:04.069Z,16.08
2018-11-11T10:51:56.760Z,16.11
2018-11-11T10:52:56.641Z,16.14
2018-11-11T10:54:49.337Z,16.21
2018-11-11T10:55:49.216Z,16.14
2018-11-11T10:57:41.896Z,16.17
2018-11-11T10:58:41.800Z,16.16
2018-11-11T11:00:34.489Z,15.95
2018-11-11T11:01:34.367Z,16.08
2018-11-11T11:03:27.049Z,15.92
2018-11-11T11:04:26.937Z,15.88
2018-11-11T11:06:19.635Z,15.93
2018-11-11T11:07:19.505Z,15.95
2018-11-11T11:09:12.205Z,15.91
2018-11-11T11:10:12.074Z,15.84
2018-11-11T11:12:04.794Z,15.83
2018-11-11T11:13:04.690Z,15.77
2018-11-11T11:14:57.338Z,15.71
2018-11-11T11:15:57.234Z,15.67
2018-11-11T11:17:49.919Z,15.65
2018-11-11T11:18:49.798Z,15.60
2018-11-11T11:20:42.493Z,15.70
2018-11-11T11:21:42.375Z,15.62
2018-11-11T11:23:35.048Z,15.65
2018-11-11T11:24:34.965Z,15.67
2018-11-11T11:26:27.637Z,15.60
2018-11-11T11:27:27.635Z,15.59
2018-11-11T11:29:20.188Z,15.74
2018-11-11T11:30:20.081Z,15.75
2018-11-11T11:32:12.878Z,15.70
2018-11-11T11:33:12.645Z,15.78
2018-11-11T11:35:05.370Z,15.71
2018-11-11T11:36:05.215Z,15.71
2018-11-11T11:37:57.957Z,15.62
2018-11-11T11:38:57.784Z,15.70
2018-11-11T11:40:50.459Z,15.71
2018-11-11T11:41:50.352Z,15.77
2018-11-11T11:43:43.040Z,15.74
2018-11-11T11:44:42.942Z,15.77
2018-11-11T11:46:35.601Z,15.67
2018-11-11T11:47:35.589Z,15.71
2018-11-11T11:49:28.197Z,15.80
2018-11-11T11:50:28.121Z,15.89
2018-11-11T11:52:20.837Z,15.86
2018-11-11T11:53:20.632Z,15.83
2018-11-11T11:55:13.329Z,16.04
2018-11-11T11:56:13.201Z,16.13
2018-11-11T11:58:05.915Z,16.17
2018-11-11T11:59:05.775Z,16.25
2018-11-11T12:00:58.444Z,16.25
2018-11-11T12:01:58.406Z,16.26
2018-11-11T12:03:51.053Z,16.37
2018-11-11T12:04:50.931Z,16.30
2018-11-11T12:06:43.611Z,16.32
2018-11-11T12:07:43.509Z,16.30
2018-11-11T12:09:36.201Z,16.18
2018-11-11T12:10:36.085Z,16.18
2018-11-11T12:12:28.749Z,16.10
2018-11-11T12:13:28.644Z,16.17
2018-11-11T12:15:21.334Z,16.25
2018-11-11T12:16:21.268Z,16.25
2018-11-11T12:18:13.894Z,16.26
2018-11-11T12:19:13.789Z,16.18
2018-11-11T12:21:06.486Z,16.26
2018-11-11T12:22:06.368Z,16.25
2018-11-11T12:23:59.034Z,16.29
2018-11-11T12:24:58.924Z,16.32
2018-11-11T12:26:51.626Z,16.37
2018-11-11T12:27:51.507Z,16.39
2018-11-11T12:29:44.178Z,16.36
2018-11-11T12:30:44.152Z,16.34
2018-11-11T12:32:36.769Z,16.22
2018-11-11T12:33:36.644Z,16.30
2018-11-11T12:35:29.878Z,16.30
2018-11-11T12:36:30.406Z,16.16
2018-11-11T12:38:22.410Z,16.17
2018-11-11T12:39:22.355Z,16.21
2018-11-11T12:41:15.012Z,16.18
2018-11-11T12:42:14.891Z,16.18
2018-11-11T12:44:07.569Z,16.18
2018-11-11T12:45:07.460Z,16.22
2018-11-11T12:47:00.272Z,16.16
2018-11-11T12:48:00.044Z,16.14
2018-11-11T12:49:52.719Z,16.07
2018-11-11T12:50:52.614Z,15.99
2018-11-11T12:52:45.309Z,16.10
2018-11-11T12:53:45.181Z,16.13
2018-11-11T12:55:37.876Z,16.16
2018-11-11T12:56:37.755Z,16.13
2018-11-11T12:58:30.444Z,16.16
2018-11-11T12:59:30.332Z,16.21
2018-11-11T13:01:23.004Z,16.33
2018-11-11T13:02:22.897Z,16.34
2018-11-11T13:04:15.588Z,16.30
2018-11-11T13:05:15.469Z,16.44
2018-11-11T13:07:08.148Z,16.55
2018-11-11T13:08:08.073Z,16.62
2018-11-11T13:10:00.739Z,16.62
2018-11-11T13:11:00.616Z,16.62
2018-11-11T13:12:53.303Z,16.63
2018-11-11T13:13:53.225Z,16.59
2018-11-11T13:15:45.882Z,16.59
2018-11-11T13:16:45.770Z,16.51
2018-11-11T13:18:38.449Z,16.39
2018-11-11T13:19:38.347Z,16.36
2018-11-11T13:21:31.040Z,16.27
2018-11-11T13:22:30.996Z,16.34
2018-11-11T13:24:23.599Z,16.26
2018-11-11T13:25:23.490Z,16.17
2018-11-11T13:27:16.195Z,16.08
2018-11-11T13:28:16.068Z,16.08
2018-11-11T13:30:08.751Z,15.96
2018-11-11T13:31:08.645Z,16.08
2018-11-11T13:33:01.336Z,16.10
2018-11-11T13:34:01.213Z,16.11
2018-11-11T13:35:54.399Z,16.17
2018-11-11T13:36:54.279Z,16.22
2018-11-11T13:38:46.964Z,16.00
2018-11-11T13:39:46.855Z,16.04
2018-11-11T13:41:39.550Z,15.98
2018-11-11T13:42:39.439Z,15.96
2018-11-11T13:44:32.142Z,15.93
2018-11-11T13:45:32.005Z,15.99
2018-11-11T13:47:24.698Z,15.91
2018-11-11T13:48:24.572Z,16.00
2018-11-11T13:50:17.346Z,15.92
2018-11-11T13:51:17.153Z,15.89
2018-11-11T13:53:09.848Z,15.95
2018-11-11T13:54:09.744Z,15.89
2018-11-11T13:56:02.442Z,15.84
2018-11-11T13:57:02.323Z,15.86
2018-11-11T13:58:55.013Z,15.80
2018-11-11T13:59:54.892Z,15.86
2018-11-11T14:01:47.686Z,15.71
2018-11-11T14:02:47.497Z,15.81
2018-11-11T14:04:40.157Z,15.77
2018-11-11T14:05:40.044Z,15.73
2018-11-11T14:07:32.737Z,15.77
2018-11-11T14:08:32.619Z,15.74
2018-11-11T14:10:25.300Z,15.78
2018-11-11T14:11:25.188Z,15.78
2018-11-11T14:13:17.910Z,15.74
2018-11-11T14:14:17.757Z,15.68
2018-11-11T14:16:10.441Z,15.68
2018-11-11T14:17:10.332Z,15.67
2018-11-11T14:19:03.296Z,15.63
2018-11-11T14:20:02.901Z,15.60
2018-11-11T14:21:55.583Z,15.62
2018-11-11T14:22:55.470Z,15.58
2018-11-11T14:24:48.330Z,15.56
2018-11-11T14:25:48.095Z,15.51
2018-11-11T14:27:40.710Z,15.49
2018-11-11T14:28:40.625Z,15.51
2018-11-11T14:30:33.295Z,15.47
2018-11-11T14:31:33.229Z,15.51
2018-11-11T14:33:25.880Z,15.38
2018-11-11T14:34:25.792Z,15.41
2018-11-11T14:36:18.425Z,15.38
2018-11-11T14:37:18.314Z,15.40
2018-11-11T14:39:11.009Z,15.33
2018-11-11T14:40:10.889Z,15.19
2018-11-11T14:42:03.565Z,15.25
2018-11-11T14:43:03.522Z,15.15
2018-11-11T14:44:56.159Z,15.13
2018-11-11T14:45:56.073Z,15.13
2018-11-11T14:47:48.803Z,15.00
2018-11-11T14:48:48.594Z,15.07
2018-11-11T14:50:41.289Z,15.00
2018-11-11T14:51:41.191Z,14.95
2018-11-11T14:53:33.870Z,15.00
2018-11-11T14:54:33.725Z,15.00
2018-11-11T14:56:26.470Z,15.00
2018-11-11T14:57:26.347Z,15.02
2018-11-11T14:59:19.017Z,14.90
2018-11-11T15:00:18.916Z,14.89
2018-11-11T15:02:11.626Z,14.80
2018-11-11T15:03:11.486Z,14.60
2018-11-11T15:05:04.177Z,14.57
2018-11-11T15:06:04.063Z,14.51
2018-11-11T15:07:56.812Z,14.39
2018-11-11T15:08:56.631Z,14.34
2018-11-11T15:10:49.322Z,14.20
2018-11-11T15:11:49.196Z,14.19
2018-11-11T15:13:41.869Z,14.09
2018-11-11T15:14:41.758Z,14.12
2018-11-11T15:16:34.447Z,14.16
2018-11-11T15:17:34.328Z,14.16
2018-11-11T15:19:27.331Z,14.03
2018-11-11T15:20:26.988Z,14.01
2018-11-11T15:22:19.582Z,14.01
2018-11-11T15:23:19.455Z,14.05
2018-11-11T15:25:12.179Z,14.03
2018-11-11T15:26:12.059Z,13.93
2018-11-11T15:28:04.745Z,13.95
2018-11-11T15:29:04.643Z,14.01
2018-11-11T15:30:57.480Z,13.94
2018-11-11T15:31:57.167Z,13.95
2018-11-11T15:33:49.913Z,13.86
2018-11-11T15:34:49.785Z,13.84
2018-11-11T15:36:42.493Z,13.84
2018-11-11T15:37:42.350Z,13.84
2018-11-11T15:39:35.038Z,13.93
2018-11-11T15:40:34.916Z,13.87
2018-11-11T15:42:27.709Z,13.90
2018-11-11T15:43:27.488Z,13.83
2018-11-11T15:45:20.172Z,13.86
2018-11-11T15:46:20.066Z,13.86
2018-11-11T15:48:12.760Z,13.79
2018-11-11T15:49:12.631Z,13.81
2018-11-11T15:51:05.308Z,13.76
2018-11-11T15:52:05.223Z,13.81
2018-11-11T15:53:57.876Z,13.81
2018-11-11T15:54:57.756Z,13.83
2018-11-11T15:56:50.433Z,13.78
2018-11-11T15:57:50.322Z,13.72
2018-11-11T15:59:43.009Z,13.75
2018-11-11T16:00:42.882Z,13.72
2018-11-11T16:02:35.551Z,13.72
2018-11-11T16:03:35.440Z,13.73
2018-11-11T16:05:28.123Z,13.66
2018-11-11T16:06:28.090Z,13.69
2018-11-11T16:08:20.691Z,13.69
2018-11-11T16:09:20.563Z,13.66
2018-11-11T16:11:13.242Z,13.65
2018-11-11T16:12:13.129Z,13.70
2018-11-11T16:14:05.907Z,13.68
2018-11-11T16:15:05.710Z,13.72
2018-11-11T16:16:58.400Z,13.69
2018-11-11T16:17:58.277Z,13.69
2018-11-11T16:19:50.988Z,13.72
2018-11-11T16:20:50.845Z,13.72
2018-11-11T16:22:43.516Z,13.83
2018-11-11T16:23:43.479Z,13.73
2018-11-11T16:25:36.224Z,13.76
2018-11-11T16:26:35.967Z,13.87
2018-11-11T16:28:28.693Z,13.79
2018-11-11T16:29:28.563Z,13.75
2018-11-11T16:31:21.258Z,13.86
2018-11-11T16:32:21.139Z,13.83
2018-11-11T16:34:13.840Z,13.87
2018-11-11T16:35:13.719Z,13.86
2018-11-11T16:37:06.426Z,13.78
2018-11-11T16:38:06.295Z,13.88
2018-11-11T16:39:58.966Z,13.76
2018-11-11T16:40:59.030Z,13.76
2018-11-11T16:42:51.602Z,13.84
2018-11-11T16:43:51.410Z,13.86
2018-11-11T16:45:44.105Z,13.84
2018-11-11T16:46:44.036Z,13.81
2018-11-11T16:48:36.667Z,13.83
2018-11-11T16:49:36.564Z,13.79
2018-11-11T16:51:29.274Z,13.79
2018-11-11T16:52:29.137Z,13.79
2018-11-11T16:54:21.807Z,13.76
2018-11-11T16:55:21.763Z,13.75
2018-11-11T16:57:14.478Z,13.72
2018-11-11T16:58:14.347Z,13.72
2018-11-11T17:00:07.021Z,13.75
2018-11-11T17:01:06.910Z,13.76
2018-11-11T17:02:59.594Z,13.69
2018-11-11T17:03:59.477Z,13.78
2018-11-11T17:05:52.169Z,13.73
2018-11-11T17:06:52.037Z,13.81
2018-11-11T17:08:44.710Z,13.76
2018-11-11T17:09:44.602Z,13.76
2018-11-11T17:11:37.299Z,13.72
2018-11-11T17:12:37.170Z,13.79
2018-11-11T17:14:29.841Z,13.76
2018-11-11T17:15:29.740Z,13.78
2018-11-11T17:17:22.444Z,13.75
2018-11-11T17:18:22.301Z,13.73
2018-11-11T17:20:15.075Z,13.75
2018-11-11T17:21:14.894Z,13.76
2018-11-11T17:23:07.564Z,13.78
2018-11-11T17:24:07.424Z,13.76
2018-11-11T17:26:00.122Z,13.81
2018-11-11T17:26:59.988Z,13.72
2018-11-11T17:28:52.662Z,13.79
2018-11-11T17:29:52.611Z,13.83
2018-11-11T17:31:45.244Z,13.79
2018-11-11T17:32:45.192Z,13.78
2018-11-11T17:34:37.788Z,13.84
2018-11-11T17:35:37.680Z,13.83
2018-11-11T17:37:30.372Z,13.81
2018-11-11T17:38:30.244Z,13.79
2018-11-11T17:40:22.925Z,13.81
2018-11-11T17:41:22.819Z,13.81
2018-11-11T17:43:15.504Z,13.81
2018-11-11T17:44:15.376Z,13.79
2018-11-11T17:46:08.069Z,13.83
2018-11-11T17:47:07.943Z,13.83
2018-11-11T17:49:00.669Z,13.79
2018-11-11T17:50:00.511Z,13.78
2018-11-11T17:51:53.182Z,13.84
2018-11-11T17:52:53.066Z,13.93
2018-11-11T17:54:45.762Z,13.87
2018-11-11T17:55:45.707Z,13.87
2018-11-11T17:57:38.343Z,13.91
2018-11-11T17:58:38.195Z,13.91
2018-11-11T18:00:30.870Z,13.91
2018-11-11T18:01:30.764Z,13.88
2018-11-11T18:03:23.490Z,13.84
2018-11-11T18:04:23.324Z,13.87
2018-11-11T18:06:16.005Z,13.93
2018-11-11T18:07:15.896Z,13.88
2018-11-11T18:09:08.601Z,13.90
2018-11-11T18:10:08.456Z,13.86
2018-11-11T18:12:01.149Z,13.90
2018-11-11T18:13:01.045Z,13.90
2018-11-11T18:14:53.734Z,13.90
2018-11-11T18:15:53.604Z,13.90
2018-11-11T18:17:46.274Z,13.86
2018-11-11T18:18:46.173Z,13.86
2018-11-11T18:20:38.919Z,13.95
2018-11-11T18:21:38.741Z,13.87
2018-11-11T18:23:31.423Z,13.87
2018-11-11T18:24:31.359Z,13.87
2018-11-11T18:26:24.057Z,13.90
2018-11-11T18:27:23.964Z,13.97
2018-11-11T18:29:16.584Z,13.88
2018-11-11T18:30:16.447Z,13.83
2018-11-11T18:32:09.092Z,13.79
2018-11-11T18:33:08.979Z,13.79
2018-11-11T18:35:01.669Z,13.83
2018-11-11T18:36:01.550Z,13.86
2018-11-11T18:37:54.229Z,13.79
2018-11-11T18:38:54.116Z,13.76
2018-11-11T18:40:46.803Z,13.78
2018-11-11T18:41:46.698Z,13.83
2018-11-11T18:43:39.346Z,13.79
2018-11-11T18:44:39.242Z,13.78
2018-11-11T18:46:31.925Z,13.73
2018-11-11T18:47:31.841Z,13.72
2018-11-11T18:49:24.472Z,13.72
2018-11-11T18:50:24.359Z,13.73
2018-11-11T18:52:17.056Z,13.76
2018-11-11T18:53:16.963Z,13.73
2018-11-11T18:55:09.611Z,13.69
2018-11-11T18:56:09.610Z,13.69
2018-11-11T18:58:02.199Z,13.72
2018-11-11T18:59:02.072Z,13.69
2018-11-11T19:00:54.786Z,13.72
2018-11-11T19:01:54.629Z,13.73
2018-11-11T19:03:47.327Z,13.63
2018-11-11T19:04:47.193Z,13.66
2018-11-11T19:06:39.884Z,13.62
2018-11-11T19:07:39.809Z,13.62
2018-11-11T19:09:32.441Z,13.58
2018-11-11T19:10:32.521Z,13.63
2018-11-11T19:12:25.030Z,13.60
2018-11-11T19:13:24.973Z,13.57
2018-11-11T19:15:17.574Z,13.66
2018-11-11T19:16:17.466Z,13.60
2018-11-11T19:18:10.180Z,13.58
2018-11-11T19:19:10.056Z,13.62
2018-11-11T19:21:02.729Z,13.60
2018-11-11T19:22:02.612Z,13.60
2018-11-11T19:23:55.411Z,13.55
2018-11-11T19:24:55.213Z,13.62
2018-11-11T19:26:47.847Z,13.60
2018-11-11T19:27:47.857Z,13.66
2018-11-11T19:29:40.425Z,13.53
2018-11-11T19:30:40.395Z,13.53
2018-11-11T19:32:32.975Z,13.48
2018-11-11T19:33:32.920Z,13.51
2018-11-11T19:35:25.561Z,13.51
2018-11-11T19:36:25.430Z,13.51
2018-11-11T19:38:18.121Z,13.48
2018-11-11T19:39:18.001Z,13.50
2018-11-11T19:41:10.682Z,13.47
2018-11-11T19:42:10.562Z,13.60
2018-11-11T19:44:03.248Z,13.45
2018-11-11T19:45:03.127Z,13.63
2018-11-11T19:46:55.801Z,13.50
2018-11-11T19:47:55.699Z,13.58
2018-11-11T19:49:48.386Z,13.60
2018-11-11T19:50:48.261Z,13.57
2018-11-11T19:52:40.932Z,13.60
2018-11-11T19:53:40.874Z,13.62
2018-11-11T19:55:33.524Z,13.53
2018-11-11T19:56:33.408Z,13.57
2018-11-11T19:58:26.086Z,13.58
2018-11-11T19:59:25.960Z,13.53
2018-11-11T20:01:18.636Z,13.60
2018-11-11T20:02:18.529Z,13.48
2018-11-11T20:04:11.216Z,13.50
2018-11-11T20:05:11.096Z,13.57
2018-11-11T20:07:03.761Z,13.54
2018-11-11T20:08:03.650Z,13.50
2018-11-11T20:09:56.347Z,13.55
2018-11-11T20:10:56.223Z,13.47
2018-11-11T20:12:48.892Z,13.66
2018-11-11T20:13:48.793Z,13.62
2018-11-11T20:15:41.484Z,13.53
2018-11-11T20:16:41.362Z,13.58
2018-11-11T20:18:34.042Z,13.62
2018-11-11T20:19:33.921Z,13.58
2018-11-11T20:21:26.617Z,13.58
2018-11-11T20:22:26.491Z,13.62
2018-11-11T20:24:19.220Z,13.55
2018-11-11T20:25:19.078Z,13.58
2018-11-11T20:27:12.018Z,13.58
2018-11-11T20:28:11.800Z,13.70
2018-11-11T20:30:04.329Z,13.60
2018-11-11T20:31:04.208Z,13.55
2018-11-11T20:32:56.898Z,13.57
2018-11-11T20:33:56.825Z,13.58
2018-11-11T20:35:49.515Z,13.54
2018-11-11T20:36:49.332Z,13.48
2018-11-11T20:38:42.009Z,13.62
2018-11-11T20:39:41.904Z,13.60
2018-11-11T20:41:34.603Z,13.51
2018-11-11T20:42:34.476Z,13.53
2018-11-11T20:44:27.143Z,13.55
2018-11-11T20:45:27.038Z,13.48
2018-11-11T20:47:19.723Z,13.55
2018-11-11T20:48:19.611Z,13.48
2018-11-11T20:50:12.264Z,13.57
2018-11-11T20:51:12.156Z,13.50
2018-11-11T20:53:04.841Z,13.50
2018-11-11T20:54:04.719Z,13.57
2018-11-11T20:55:57.457Z,13.51
2018-11-11T20:56:57.286Z,13.58
2018-11-11T20:58:49.963Z,13.60
2018-11-11T20:59:49.836Z,13.62
2018-11-11T21:01:42.514Z,13.47
2018-11-11T21:02:42.402Z,13.65
2018-11-11T21:04:35.090Z,13.48
2018-11-11T21:05:34.963Z,13.57
2018-11-11T21:07:27.699Z,13.55
2018-11-11T21:08:27.527Z,13.62
2018-11-11T21:10:20.201Z,13.55
2018-11-11T21:11:20.093Z,13.60
2018-11-11T21:13:12.782Z,13.62
2018-11-11T21:14:12.654Z,13.62
2018-11-11T21:16:05.328Z,13.45
2018-11-11T21:17:05.255Z,13.51
2018-11-11T21:18:57.914Z,13.47
2018-11-11T21:19:57.793Z,13.50
2018-11-11T21:21:50.455Z,13.45
2018-11-11T21:22:50.347Z,13.54
2018-11-11T21:24:43.059Z,13.47
2018-11-11T21:25:42.943Z,13.55
2018-11-11T21:27:35.627Z,13.58
2018-11-11T21:28:35.496Z,13.54
2018-11-11T21:30:28.171Z,13.47
2018-11-11T21:31:28.126Z,13.48
2018-11-11T21:33:20.765Z,13.65
2018-11-11T21:34:20.627Z,13.60
2018-11-11T21:36:13.300Z,13.55
2018-11-11T21:37:13.196Z,13.57
2018-11-11T21:39:05.880Z,13.54
2018-11-11T21:40:05.755Z,13.57
2018-11-11T21:41:58.459Z,13.62
2018-11-11T21:42:58.334Z,13.55
2018-11-11T21:44:51.283Z,13.57
2018-11-11T21:45:50.918Z,13.55
2018-11-11T21:47:43.567Z,13.42
2018-11-11T21:48:43.497Z,13.55
2018-11-11T21:50:36.146Z,13.51
2018-11-11T21:51:36.023Z,13.44
2018-11-11T21:53:28.743Z,13.48
2018-11-11T21:54:28.589Z,13.48
2018-11-11T21:56:21.292Z,13.45
2018-11-11T21:57:21.149Z,13.53
2018-11-11T21:59:13.832Z,13.53
2018-11-11T22:00:13.714Z,13.53
2018-11-11T22:02:06.637Z,13.54
2018-11-11T22:03:06.361Z,13.48
2018-11-11T22:04:58.971Z,13.51
2018-11-11T22:05:58.850Z,13.48
2018-11-11T22:07:51.529Z,13.42
2018-11-11T22:08:51.489Z,13.47
2018-11-11T22:10:44.117Z,13.42
2018-11-11T22:11:44.063Z,13.42
2018-11-11T22:13:36.674Z,13.39
2018-11-11T22:14:36.560Z,13.48
2018-11-11T22:16:29.245Z,13.40
2018-11-11T22:17:29.114Z,13.50
2018-11-11T22:19:21.795Z,13.45
2018-11-11T22:20:21.690Z,13.44
2018-11-11T22:22:14.434Z,13.42
2018-11-11T22:23:14.258Z,13.42
2018-11-11T22:25:06.953Z,13.39
2018-11-11T22:26:06.837Z,13.39
2018-11-11T22:27:59.561Z,13.44
2018-11-11T22:28:59.427Z,13.47
2018-11-11T22:30:52.280Z,13.40
2018-11-11T22:31:52.057Z,13.45
2018-11-11T22:33:44.686Z,13.48
2018-11-11T22:34:44.567Z,13.42
2018-11-11T22:36:37.260Z,13.42
2018-11-11T22:37:37.128Z,13.48
2018-11-11T22:39:29.795Z,13.44
2018-11-11T22:40:29.689Z,13.42
2018-11-11T22:42:22.613Z,13.39
2018-11-11T22:43:22.259Z,13.44
2018-11-11T22:45:14.930Z,13.42
2018-11-11T22:46:14.821Z,13.31
2018-11-11T22:48:07.548Z,13.24
2018-11-11T22:49:07.419Z,13.21
2018-11-11T22:51:00.157Z,13.19
2018-11-11T22:52:00.051Z,13.14
2018-11-11T22:53:52.779Z,13.11
2018-11-11T22:54:52.652Z,13.06
2018-11-11T22:56:45.472Z,12.98
2018-11-11T22:57:45.217Z,12.98
2018-11-11T22:59:38.161Z,12.98
